createdAt,value
2023-03-18T00:00:34.150Z,97337.69
2023-03-18T00:03:01.264Z,97337.72
2023-03-18T00:05:28.903Z,97327.34
2023-03-18T00:07:56.697Z,97333.19
2023-03-18T00:10:24.077Z,97325.50
2023-03-18T00:12:51.826Z,97326.69
2023-03-18T00:15:19.617Z,97332.59
2023-03-18T00:17:48.671Z,97332.03
2023-03-18T00:20:18.599Z,97337.31
2023-03-18T00:22:46.715Z,97338.16
2023-03-18T00:25:15.440Z,97344.31
2023-03-18T00:27:43.049Z,97347.81
2023-03-18T00:30:12.472Z,97348.19
2023-03-18T00:32:39.673Z,97353.75
2023-03-18T00:35:07.065Z,97351.69
2023-03-18T00:37:35.762Z,97358.78
2023-03-18T00:40:10.281Z,97357.75
2023-03-18T00:42:42.662Z,97359.44
2023-03-18T00:45:12.065Z,97356.56
2023-03-18T00:47:39.417Z,97359.41
2023-03-18T00:50:08.614Z,97362.06
2023-03-18T00:52:36.557Z,97360.03
2023-03-18T00:55:04.565Z,97363.13
2023-03-18T00:57:33.924Z,97362.31
2023-03-18T01:00:01.717Z,97370.91
2023-03-18T01:02:29.822Z,97380.47
2023-03-18T01:04:57.905Z,97377.63
2023-03-18T01:07:25.602Z,97380.66
2023-03-18T01:09:54.765Z,97373.13
2023-03-18T01:12:22.813Z,97366.59
2023-03-18T01:14:50.228Z,97367.03
2023-03-18T01:17:17.797Z,97364.19
2023-03-18T01:19:45.275Z,97371.13
2023-03-18T01:22:12.407Z,97370.09
2023-03-18T01:24:46.378Z,97375.78
2023-03-18T01:27:15.005Z,97369.06
2023-03-18T01:29:46.582Z,97366.03
2023-03-18T01:32:19.500Z,97374.38
2023-03-18T01:34:47.011Z,97376.63
2023-03-18T01:37:14.606Z,97379.91
2023-03-18T01:39:45.659Z,97375.59
2023-03-18T01:42:20.139Z,97379.28
2023-03-18T01:44:48.271Z,97373.75
2023-03-18T01:47:18.632Z,97374.97
2023-03-18T01:49:52.910Z,97381.72
2023-03-18T01:52:25.332Z,97377.63
2023-03-18T01:55:07.511Z,97365.59
2023-03-18T01:57:35.837Z,97373.75
2023-03-18T02:00:04.520Z,97369.69
2023-03-18T02:02:42.697Z,97365.59
2023-03-18T02:05:14.945Z,97358.84
2023-03-18T02:07:44.448Z,97358.66
2023-03-18T02:10:32.419Z,97364.78
2023-03-18T02:13:07.942Z,97370.50
2023-03-18T02:15:47.155Z,97366.00
2023-03-18T02:18:23.366Z,97361.94
2023-03-18T02:20:50.937Z,97354.78
2023-03-18T02:23:48.099Z,97356.22
2023-03-18T02:26:33.813Z,97353.09
2023-03-18T02:29:04.716Z,97356.56
2023-03-18T02:31:41.730Z,97349.75
2023-03-18T02:34:10.129Z,97348.84
2023-03-18T02:36:39.018Z,97354.75
2023-03-18T02:39:14.880Z,97374.16
2023-03-18T02:41:43.619Z,97373.75
2023-03-18T02:44:13.743Z,97374.56
2023-03-18T02:47:04.150Z,97369.28
2023-03-18T02:49:32.683Z,97377.59
2023-03-18T02:52:01.310Z,97383.06
2023-03-18T02:54:30.921Z,97382.63
2023-03-18T02:56:58.510Z,97381.03
2023-03-18T02:59:26.508Z,97391.03
2023-03-18T03:01:55.043Z,97395.56
2023-03-18T03:04:24.779Z,97382.72
2023-03-18T03:06:54.475Z,97377.34
2023-03-18T03:09:34.387Z,97380.81
2023-03-18T03:12:01.646Z,97379.88
2023-03-18T03:14:29.901Z,97386.72
2023-03-18T03:17:00.550Z,97399.84
2023-03-18T03:19:27.701Z,97395.84
2023-03-18T03:21:55.880Z,97399.31
2023-03-18T03:24:25.773Z,97404.09
2023-03-18T03:26:52.828Z,97402.38
2023-03-18T03:29:20.818Z,97409.09
2023-03-18T03:31:50.208Z,97412.81
2023-03-18T03:34:18.036Z,97407.84
2023-03-18T03:36:45.193Z,97404.72
2023-03-18T03:39:12.457Z,97406.16
2023-03-18T03:41:40.204Z,97400.44
2023-03-18T03:44:07.584Z,97412.19
2023-03-18T03:46:35.984Z,97416.97
2023-03-18T03:49:03.787Z,97424.94
2023-03-18T03:51:31.337Z,97416.75
2023-03-18T03:53:58.978Z,97418.84
2023-03-18T03:56:27.146Z,97421.09
2023-03-18T03:58:54.205Z,97428.47
2023-03-18T04:01:23.408Z,97427.59
2023-03-18T04:03:50.579Z,97426.31
2023-03-18T04:06:18.647Z,97435.28
2023-03-18T04:08:56.478Z,97442.78
2023-03-18T04:11:23.862Z,97442.38
2023-03-18T04:13:51.506Z,97439.19
2023-03-18T04:16:18.889Z,97427.16
2023-03-18T04:18:47.399Z,97433.03
2023-03-18T04:21:14.975Z,97425.25
2023-03-18T04:23:53.198Z,97427.31
2023-03-18T04:26:21.381Z,97424.81
2023-03-18T04:28:49.724Z,97425.56
2023-03-18T04:31:17.128Z,97436.66
2023-03-18T04:33:44.788Z,97431.63
2023-03-18T04:36:12.999Z,97438.22
2023-03-18T04:38:40.235Z,97427.25
2023-03-18T04:41:07.974Z,97432.25
2023-03-18T04:43:35.092Z,97430.03
2023-03-18T04:46:02.858Z,97432.47
2023-03-18T04:48:30.826Z,97439.28
2023-03-18T04:50:59.856Z,97437.00
2023-03-18T04:53:29.821Z,97437.16
2023-03-18T04:55:58.043Z,97433.28
2023-03-18T04:58:32.978Z,97443.75
2023-03-18T05:01:26.028Z,97438.44
2023-03-18T05:03:53.678Z,97437.22
2023-03-18T05:06:29.970Z,97443.00
2023-03-18T05:09:07.202Z,97444.53
2023-03-18T05:11:35.279Z,97440.03
2023-03-18T05:14:22.708Z,97428.56
2023-03-18T05:16:50.892Z,97430.84
2023-03-18T05:19:18.010Z,97428.59
2023-03-18T05:21:52.802Z,97434.63
2023-03-18T05:24:20.021Z,97433.19
2023-03-18T05:26:47.977Z,97436.94
2023-03-18T05:29:16.647Z,97434.69
2023-03-18T05:32:02.772Z,97441.53
2023-03-18T05:34:31.451Z,97438.34
2023-03-18T05:36:59.129Z,97435.94
2023-03-18T05:39:27.090Z,97444.88
2023-03-18T05:41:54.301Z,97441.56
2023-03-18T05:44:26.976Z,97451.19
2023-03-18T05:46:56.727Z,97447.53
2023-03-18T05:49:49.619Z,97447.66
2023-03-18T05:52:19.842Z,97451.22
2023-03-18T05:54:50.152Z,97449.97
2023-03-18T05:57:25.467Z,97451.06
2023-03-18T05:59:59.842Z,97445.22
2023-03-18T06:02:28.167Z,97444.50
2023-03-18T06:04:56.027Z,97446.56
2023-03-18T06:07:23.939Z,97451.78
2023-03-18T06:09:52.285Z,97459.53
2023-03-18T06:12:20.395Z,97453.47
2023-03-18T06:14:47.705Z,97452.63
2023-03-18T06:17:16.517Z,97461.38
2023-03-18T06:19:44.989Z,97455.41
2023-03-18T06:22:12.747Z,97452.44
2023-03-18T06:24:39.829Z,97456.53
2023-03-18T06:27:07.358Z,97464.88
2023-03-18T06:29:37.144Z,97460.19
2023-03-18T06:32:11.959Z,97461.25
2023-03-18T06:34:40.087Z,97463.38
2023-03-18T06:37:08.332Z,97462.41
2023-03-18T06:39:35.663Z,97471.09
2023-03-18T06:42:06.213Z,97467.56
2023-03-18T06:44:37.945Z,97465.41
2023-03-18T06:47:13.545Z,97471.91
2023-03-18T06:49:47.093Z,97479.59
2023-03-18T06:52:19.336Z,97483.97
2023-03-18T06:54:48.809Z,97476.84
2023-03-18T06:57:17.733Z,97481.78
2023-03-18T06:59:45.877Z,97476.81
2023-03-18T07:02:14.150Z,97482.66
2023-03-18T07:04:41.747Z,97488.13
2023-03-18T07:07:08.920Z,97483.44
2023-03-18T07:09:37.312Z,97488.03
2023-03-18T07:12:04.828Z,97487.22
2023-03-18T07:14:32.019Z,97489.47
2023-03-18T07:16:59.538Z,97486.63
2023-03-18T07:19:26.714Z,97492.56
2023-03-18T07:21:53.913Z,97494.09
2023-03-18T07:24:21.502Z,97488.66
2023-03-18T07:26:50.237Z,97487.03
2023-03-18T07:29:17.791Z,97491.06
2023-03-18T07:31:45.181Z,97493.00
2023-03-18T07:34:14.873Z,97495.94
2023-03-18T07:36:42.806Z,97497.38
2023-03-18T07:39:11.370Z,97482.88
2023-03-18T07:41:39.018Z,97492.06
2023-03-18T07:44:07.766Z,97498.03
2023-03-18T07:46:34.843Z,97492.91
2023-03-18T07:49:02.305Z,97493.28
2023-03-18T07:51:29.578Z,97497.03
2023-03-18T07:53:56.684Z,97487.28
2023-03-18T07:56:24.325Z,97492.88
2023-03-18T07:58:51.747Z,97488.78
2023-03-18T08:01:19.490Z,97487.19
2023-03-18T08:03:47.340Z,97491.44
2023-03-18T08:06:15.692Z,97485.16
2023-03-18T08:08:43.836Z,97500.03
2023-03-18T08:11:12.250Z,97495.47
2023-03-18T08:13:39.798Z,97502.84
2023-03-18T08:16:07.537Z,97499.78
2023-03-18T08:18:35.629Z,97496.94
2023-03-18T08:21:02.612Z,97499.16
2023-03-18T08:23:29.620Z,97499.78
2023-03-18T08:25:56.899Z,97500.03
2023-03-18T08:28:23.858Z,97495.88
2023-03-18T08:30:58.391Z,97498.28
2023-03-18T08:33:27.848Z,97497.03
2023-03-18T08:35:56.273Z,97495.59
2023-03-18T08:38:25.084Z,97492.94
2023-03-18T08:40:52.388Z,97498.25
2023-03-18T08:43:22.147Z,97494.41
2023-03-18T08:45:53.950Z,97486.41
2023-03-18T08:48:22.362Z,97493.16
2023-03-18T08:50:50.456Z,97483.84
2023-03-18T08:53:18.060Z,97492.41
2023-03-18T08:55:46.436Z,97489.41
2023-03-18T08:58:13.593Z,97487.13
2023-03-18T09:00:42.849Z,97487.19
2023-03-18T09:03:10.179Z,97484.75
2023-03-18T09:05:38.616Z,97479.75
2023-03-18T09:08:06.551Z,97477.28
2023-03-18T09:10:34.192Z,97468.88
2023-03-18T09:13:01.179Z,97473.81
2023-03-18T09:15:28.251Z,97470.19
2023-03-18T09:18:10.239Z,97471.13
2023-03-18T09:20:41.431Z,97476.41
2023-03-18T09:23:10.088Z,97471.19
2023-03-18T09:25:37.124Z,97473.09
2023-03-18T09:28:04.394Z,97468.03
2023-03-18T09:30:32.044Z,97479.63
2023-03-18T09:32:59.623Z,97470.06
2023-03-18T09:35:29.296Z,97472.91
2023-03-18T09:37:57.340Z,97461.75
2023-03-18T09:40:38.597Z,97469.84
2023-03-18T09:43:32.253Z,97469.25
2023-03-18T09:46:29.261Z,97473.31
2023-03-18T09:49:36.945Z,97473.56
2023-03-18T09:52:16.827Z,97460.47
2023-03-18T09:55:30.181Z,97463.16
2023-03-18T09:58:03.160Z,97458.03
2023-03-18T10:00:38.661Z,97459.38
2023-03-18T10:03:34.735Z,97448.44
2023-03-18T10:06:21.835Z,97449.22
2023-03-18T10:09:01.298Z,97450.19
2023-03-18T10:11:37.294Z,97453.00
2023-03-18T10:14:10.247Z,97456.63
2023-03-18T10:17:09.354Z,97453.94
2023-03-18T10:19:37.651Z,97447.34
2023-03-18T10:22:16.108Z,97439.59
2023-03-18T10:25:21.368Z,97435.81
2023-03-18T10:28:33.519Z,97431.09
2023-03-18T10:31:37.268Z,97428.72
2023-03-18T10:34:31.240Z,97428.78
2023-03-18T10:37:19.063Z,97433.16
2023-03-18T10:39:48.718Z,97424.59
2023-03-18T10:42:23.401Z,97425.63
2023-03-18T10:44:55.987Z,97421.44
2023-03-18T10:47:33.607Z,97421.22
2023-03-18T10:50:00.757Z,97428.50
2023-03-18T10:52:31.385Z,97415.91
2023-03-18T10:54:58.552Z,97408.41
2023-03-18T10:57:26.850Z,97412.56
2023-03-18T10:59:54.684Z,97414.06
2023-03-18T11:02:39.178Z,97423.19
2023-03-18T11:05:20.813Z,97418.44
2023-03-18T11:08:09.276Z,97408.38
2023-03-18T11:10:45.971Z,97409.06
2023-03-18T11:13:18.145Z,97405.16
2023-03-18T11:15:50.226Z,97391.88
2023-03-18T11:18:23.151Z,97387.47
2023-03-18T11:21:04.853Z,97392.72
2023-03-18T11:23:48.956Z,97389.56
2023-03-18T11:26:29.035Z,97379.72
2023-03-18T11:29:06.408Z,97384.84
2023-03-18T11:31:33.962Z,97377.91
2023-03-18T11:34:02.066Z,97376.56
2023-03-18T11:36:32.303Z,97371.09
2023-03-18T11:39:04.836Z,97366.06
2023-03-18T11:41:32.201Z,97357.66
2023-03-18T11:44:06.076Z,97348.47
2023-03-18T11:46:45.696Z,97340.25
2023-03-18T11:49:22.850Z,97348.66
2023-03-18T11:52:14.952Z,97349.69
2023-03-18T11:54:47.813Z,97350.69
2023-03-18T11:57:42.110Z,97340.91
2023-03-18T12:00:46.063Z,97338.53
2023-03-18T12:04:04.291Z,97332.16
2023-03-18T12:06:36.016Z,97336.47
2023-03-18T12:09:30.293Z,97343.22
2023-03-18T12:12:19.612Z,97328.59
2023-03-18T12:15:05.103Z,97319.13
2023-03-18T12:17:52.361Z,97321.78
2023-03-18T12:20:49.964Z,97317.91
2023-03-18T12:23:54.059Z,97317.13
2023-03-18T12:26:59.736Z,97322.00
2023-03-18T12:30:15.506Z,97315.81
2023-03-18T12:33:14.353Z,97304.44
2023-03-18T12:35:50.882Z,97303.47
2023-03-18T12:38:48.424Z,97307.31
2023-03-18T12:41:31.471Z,97315.75
2023-03-18T12:44:41.357Z,97304.28
2023-03-18T12:47:25.101Z,97315.19
2023-03-18T12:50:05.226Z,97298.69
2023-03-18T12:52:45.061Z,97303.84
2023-03-18T12:55:29.206Z,97305.25
2023-03-18T12:58:04.502Z,97293.56
2023-03-18T13:00:48.181Z,97291.63
2023-03-18T13:03:37.768Z,97277.41
2023-03-18T13:06:22.614Z,97284.59
2023-03-18T13:09:22.498Z,97281.28
2023-03-18T13:12:15.920Z,97280.63
2023-03-18T13:15:00.658Z,97289.97
2023-03-18T13:17:31.324Z,97285.09
2023-03-18T13:20:01.358Z,97277.22
2023-03-18T13:22:43.988Z,97276.00
2023-03-18T13:25:51.770Z,97281.16
2023-03-18T13:29:20.044Z,97278.25
2023-03-18T13:32:28.094Z,97273.31
2023-03-18T13:35:16.951Z,97276.28
2023-03-18T13:38:06.196Z,97273.81
2023-03-18T13:40:58.140Z,97268.22
2023-03-18T13:43:26.336Z,97265.09
2023-03-18T13:45:55.344Z,97273.56
2023-03-18T13:48:34.464Z,97273.91
2023-03-18T13:51:38.068Z,97254.88
2023-03-18T13:54:14.421Z,97259.41
2023-03-18T13:56:44.329Z,97261.88
2023-03-18T13:59:33.023Z,97261.44
2023-03-18T14:02:41.573Z,97259.50
2023-03-18T14:05:36.872Z,97269.53
2023-03-18T14:08:34.454Z,97272.53
2023-03-18T14:11:22.580Z,97275.56
2023-03-18T14:14:02.136Z,97258.75
2023-03-18T14:16:36.205Z,97261.38
2023-03-18T14:19:03.496Z,97254.41
2023-03-18T14:21:34.065Z,97256.59
2023-03-18T14:24:07.607Z,97256.59
2023-03-18T14:26:35.225Z,97257.41
2023-03-18T14:29:05.247Z,97253.91
2023-03-18T14:31:43.005Z,97248.50
2023-03-18T14:34:19.587Z,97252.56
2023-03-18T14:37:16.200Z,97248.91
2023-03-18T14:39:51.518Z,97239.03
2023-03-18T14:42:32.797Z,97233.84
2023-03-18T14:45:09.870Z,97238.00
2023-03-18T14:47:47.743Z,97235.59
2023-03-18T14:50:37.955Z,97238.03
2023-03-18T14:53:22.826Z,97233.44
2023-03-18T14:55:55.173Z,97233.44
2023-03-18T14:58:24.693Z,97236.66
2023-03-18T15:00:56.602Z,97224.81
2023-03-18T15:03:29.767Z,97236.66
2023-03-18T15:06:00.824Z,97230.72
2023-03-18T15:08:48.032Z,97225.38
2023-03-18T15:11:18.816Z,97224.84
2023-03-18T15:13:46.351Z,97227.50
2023-03-18T15:16:18.734Z,97223.72
2023-03-18T15:18:46.271Z,97220.44
2023-03-18T15:21:18.455Z,97217.75
2023-03-18T15:23:56.264Z,97217.69
2023-03-18T15:26:28.918Z,97215.44
2023-03-18T15:29:00.217Z,97215.72
2023-03-18T15:31:35.703Z,97221.47
2023-03-18T15:34:22.226Z,97216.25
2023-03-18T15:36:57.987Z,97219.38
2023-03-18T15:39:32.183Z,97220.75
2023-03-18T15:42:02.261Z,97224.53
2023-03-18T15:44:40.098Z,97219.03
2023-03-18T15:47:20.922Z,97222.00
2023-03-18T15:50:15.031Z,97212.16
2023-03-18T15:52:43.501Z,97217.00
2023-03-18T15:55:37.341Z,97209.75
2023-03-18T15:58:19.418Z,97212.66
2023-03-18T16:00:46.936Z,97217.72
2023-03-18T16:03:22.159Z,97216.31
2023-03-18T16:05:50.412Z,97213.94
2023-03-18T16:08:20.536Z,97215.63
2023-03-18T16:10:55.421Z,97227.50
2023-03-18T16:13:29.563Z,97224.66
2023-03-18T16:15:56.870Z,97232.66
2023-03-18T16:18:24.066Z,97231.00
2023-03-18T16:20:52.887Z,97228.00
2023-03-18T16:23:20.956Z,97233.06
2023-03-18T16:25:51.995Z,97242.00
2023-03-18T16:28:25.843Z,97234.22
2023-03-18T16:30:56.227Z,97233.00
2023-03-18T16:33:24.547Z,97242.47
2023-03-18T16:36:02.406Z,97249.53
2023-03-18T16:38:31.075Z,97256.09
2023-03-18T16:40:58.296Z,97250.00
2023-03-18T16:43:29.168Z,97256.22
2023-03-18T16:46:04.379Z,97254.81
2023-03-18T16:48:31.921Z,97255.91
2023-03-18T16:51:02.294Z,97260.31
2023-03-18T16:53:31.509Z,97264.25
2023-03-18T16:56:20.749Z,97270.78
2023-03-18T16:58:47.978Z,97269.31
2023-03-18T17:01:16.806Z,97275.34
2023-03-18T17:03:44.295Z,97273.47
2023-03-18T17:06:12.640Z,97279.84
2023-03-18T17:08:40.044Z,97276.44
2023-03-18T17:11:07.528Z,97285.69
2023-03-18T17:13:37.908Z,97295.53
2023-03-18T17:16:05.406Z,97294.19
2023-03-18T17:18:33.168Z,97300.88
2023-03-18T17:21:00.810Z,97300.03
2023-03-18T17:23:28.965Z,97299.94
2023-03-18T17:26:02.865Z,97307.59
2023-03-18T17:28:40.594Z,97317.28
2023-03-18T17:31:07.675Z,97311.28
2023-03-18T17:33:37.048Z,97307.13
2023-03-18T17:36:06.634Z,97310.91
2023-03-18T17:38:37.433Z,97316.44
2023-03-18T17:41:14.091Z,97313.66
2023-03-18T17:43:42.060Z,97316.81
2023-03-18T17:46:09.787Z,97321.00
2023-03-18T17:48:39.512Z,97318.31
2023-03-18T17:51:18.080Z,97325.84
2023-03-18T17:53:48.044Z,97329.47
2023-03-18T17:56:17.854Z,97330.06
2023-03-18T17:58:48.157Z,97336.53
2023-03-18T18:01:27.258Z,97333.78
2023-03-18T18:03:56.137Z,97343.03
2023-03-18T18:06:31.612Z,97336.94
2023-03-18T18:09:01.152Z,97336.25
2023-03-18T18:11:37.857Z,97342.41
2023-03-18T18:14:25.636Z,97335.63
2023-03-18T18:16:55.995Z,97335.91
2023-03-18T18:19:23.627Z,97337.66
2023-03-18T18:21:51.273Z,97337.34
2023-03-18T18:24:28.801Z,97344.47
2023-03-18T18:26:56.525Z,97342.59
2023-03-18T18:29:28.078Z,97341.25
2023-03-18T18:31:55.738Z,97338.97
2023-03-18T18:34:23.027Z,97343.22
2023-03-18T18:36:51.016Z,97342.59
2023-03-18T18:39:18.281Z,97339.50
2023-03-18T18:41:46.426Z,97344.81
2023-03-18T18:44:13.997Z,97344.84
2023-03-18T18:46:41.356Z,97345.44
2023-03-18T18:49:23.400Z,97352.78
2023-03-18T18:51:53.369Z,97345.59
2023-03-18T18:54:21.795Z,97352.66
2023-03-18T18:56:49.525Z,97354.69
2023-03-18T18:59:34.890Z,97349.81
2023-03-18T19:02:03.437Z,97352.38
2023-03-18T19:04:30.482Z,97349.13
2023-03-18T19:07:07.143Z,97359.63
2023-03-18T19:09:35.020Z,97358.38
2023-03-18T19:12:02.167Z,97367.06
2023-03-18T19:14:31.205Z,97371.91
2023-03-18T19:16:59.248Z,97367.41
2023-03-18T19:19:33.361Z,97365.50
2023-03-18T19:22:00.580Z,97369.94
2023-03-18T19:24:33.183Z,97363.81
2023-03-18T19:27:04.131Z,97364.66
2023-03-18T19:29:32.723Z,97361.88
2023-03-18T19:32:01.701Z,97361.34
2023-03-18T19:34:32.470Z,97364.19
2023-03-18T19:37:02.702Z,97370.72
2023-03-18T19:39:30.229Z,97372.94
2023-03-18T19:41:57.217Z,97376.56
2023-03-18T19:44:26.618Z,97373.34
2023-03-18T19:46:56.690Z,97375.00
2023-03-18T19:49:27.847Z,97378.66
2023-03-18T19:51:55.954Z,97383.34
2023-03-18T19:54:32.049Z,97389.63
2023-03-18T19:57:03.662Z,97388.22
2023-03-18T19:59:38.212Z,97388.13
2023-03-18T20:02:30.787Z,97390.88
2023-03-18T20:05:01.662Z,97393.47
2023-03-18T20:07:31.555Z,97396.66
2023-03-18T20:09:58.932Z,97397.03
2023-03-18T20:12:35.214Z,97401.06
2023-03-18T20:15:04.532Z,97407.13
2023-03-18T20:17:39.078Z,97403.63
2023-03-18T20:20:16.648Z,97402.63
2023-03-18T20:22:52.901Z,97413.66
2023-03-18T20:25:37.294Z,97403.09
2023-03-18T20:28:05.977Z,97408.78
2023-03-18T20:30:36.658Z,97411.06
2023-03-18T20:33:04.614Z,97411.53
2023-03-18T20:35:35.790Z,97407.38
2023-03-18T20:38:25.126Z,97418.84
2023-03-18T20:40:52.523Z,97417.44
2023-03-18T20:43:22.291Z,97422.00
2023-03-18T20:45:52.984Z,97427.31
2023-03-18T20:48:20.966Z,97424.84
2023-03-18T20:50:48.229Z,97425.56
2023-03-18T20:53:25.472Z,97423.66
2023-03-18T20:55:52.599Z,97418.88
2023-03-18T20:58:23.594Z,97421.69
2023-03-18T21:00:52.548Z,97425.13
2023-03-18T21:03:38.076Z,97430.34
2023-03-18T21:06:06.816Z,97426.28
2023-03-18T21:08:34.160Z,97426.28
2023-03-18T21:11:02.374Z,97425.59
2023-03-18T21:13:39.012Z,97422.53
2023-03-18T21:16:13.056Z,97419.38
2023-03-18T21:18:42.029Z,97427.63
2023-03-18T21:21:36.552Z,97431.75
2023-03-18T21:24:19.437Z,97421.72
2023-03-18T21:27:01.623Z,97427.16
2023-03-18T21:29:30.777Z,97423.00
2023-03-18T21:31:57.870Z,97439.00
2023-03-18T21:34:24.829Z,97434.28
2023-03-18T21:36:52.382Z,97431.31
2023-03-18T21:39:20.946Z,97443.19
2023-03-18T21:41:47.996Z,97437.72
2023-03-18T21:44:14.933Z,97436.09
2023-03-18T21:46:42.629Z,97432.91
2023-03-18T21:49:09.642Z,97438.53
2023-03-18T21:51:40.339Z,97436.00
2023-03-18T21:54:18.338Z,97433.97
2023-03-18T21:56:45.399Z,97442.31
2023-03-18T21:59:12.808Z,97439.13
2023-03-18T22:01:39.999Z,97434.84
2023-03-18T22:04:07.574Z,97437.31
2023-03-18T22:06:35.017Z,97426.13
2023-03-18T22:09:02.401Z,97427.09
2023-03-18T22:11:29.630Z,97431.31
2023-03-18T22:13:56.890Z,97433.09
2023-03-18T22:16:24.012Z,97430.50
2023-03-18T22:18:51.235Z,97431.63
2023-03-18T22:21:25.359Z,97428.28
2023-03-18T22:23:53.320Z,97440.09
2023-03-18T22:26:21.557Z,97447.81
2023-03-18T22:28:50.420Z,97449.03
2023-03-18T22:31:21.271Z,97443.75
2023-03-18T22:33:48.588Z,97442.19
2023-03-18T22:36:18.130Z,97443.88
2023-03-18T22:38:46.177Z,97442.34
2023-03-18T22:41:24.085Z,97445.38
2023-03-18T22:43:51.528Z,97446.34
2023-03-18T22:46:18.922Z,97456.03
2023-03-18T22:48:46.058Z,97459.28
2023-03-18T22:51:26.678Z,97450.94
2023-03-18T22:53:54.625Z,97447.94
2023-03-18T22:56:22.913Z,97447.94
2023-03-18T22:58:51.208Z,97448.63
2023-03-18T23:01:21.178Z,97449.28
2023-03-18T23:03:48.911Z,97454.16
2023-03-18T23:06:21.057Z,97455.00
2023-03-18T23:08:48.291Z,97457.63
2023-03-18T23:11:16.517Z,97461.50
2023-03-18T23:13:50.041Z,97456.88
2023-03-18T23:16:20.812Z,97461.25
2023-03-18T23:18:48.137Z,97467.28
2023-03-18T23:21:22.269Z,97463.50
2023-03-18T23:23:50.092Z,97464.06
2023-03-18T23:26:17.698Z,97470.69
2023-03-18T23:28:45.818Z,97468.81
2023-03-18T23:31:15.038Z,97470.84
2023-03-18T23:33:43.005Z,97471.50
2023-03-18T23:36:10.680Z,97474.41
2023-03-18T23:38:38.058Z,97470.16
2023-03-18T23:41:06.184Z,97475.00
2023-03-18T23:43:33.199Z,97461.38
2023-03-18T23:46:01.690Z,97478.19
2023-03-18T23:48:28.794Z,97475.38
2023-03-18T23:50:56.138Z,97468.84
2023-03-18T23:53:23.249Z,97480.19
2023-03-18T23:55:50.438Z,97483.88
2023-03-18T23:58:17.670Z,97488.13
